Time;durP1;ratioP1;P1;durP2;ratioP2;P2;SDS_P1;SDS_P2;PMS_P1;PMS_P2;Temp;Humidity;BMP_temperature;BMP_pressure;BME280_temperature;BME280_humidity;BME280_pressure;Samples;Min_cycle;Max_cycle;Signal;HPM_P1;HPM_P2
2021/12/13 00:02:29;;;;;;;13.13;12.33;;;6.30;99.90;;;;;;5007276;28;20212;-74
2021/12/13 00:05:02;;;;;;;14.03;13.03;;;6.30;99.90;;;;;;5012232;28;20224;-75
2021/12/13 00:07:34;;;;;;;13.50;12.57;;;6.30;99.90;;;;;;5005145;28;20255;-75
2021/12/13 00:10:08;;;;;;;13.40;12.50;;;6.20;99.90;;;;;;5004169;28;20200;-75
2021/12/13 00:12:40;;;;;;;13.20;12.30;;;6.20;99.90;;;;;;5001102;28;20200;-75
2021/12/13 00:15:14;;;;;;;13.40;12.50;;;6.20;99.90;;;;;;5012265;28;20263;-75
2021/12/13 00:17:46;;;;;;;13.27;12.37;;;6.20;99.90;;;;;;5006651;28;20197;-75
2021/12/13 00:20:19;;;;;;;12.93;12.13;;;6.20;99.90;;;;;;5005949;28;20271;-75
2021/12/13 00:22:49;;;;;;;13.50;12.60;;;6.20;99.90;;;;;;5012188;28;20281;-75
2021/12/13 00:25:19;;;;;;;13.37;12.37;;;6.20;99.90;;;;;;5015915;28;20244;-74
2021/12/13 00:27:51;;;;;;;13.43;12.53;;;6.20;99.90;;;;;;5007788;28;20207;-75
2021/12/13 00:30:27;;;;;;;13.97;12.87;;;6.20;99.90;;;;;;5010433;28;20266;-75
2021/12/13 00:33:07;;;;;;;13.97;12.97;;;6.20;99.90;;;;;;5014020;28;20308;-75
2021/12/13 00:35:41;;;;;;;14.50;13.50;;;6.20;99.90;;;;;;5003545;28;20738;-75
2021/12/13 00:38:11;;;;;;;14.20;13.20;;;6.20;99.90;;;;;;5012644;28;20208;-75
2021/12/13 00:40:42;;;;;;;13.37;12.43;;;6.20;99.90;;;;;;5013794;28;20221;-74
2021/12/13 00:43:11;;;;;;;14.23;13.10;;;6.20;99.90;;;;;;5013447;28;20605;-75
2021/12/13 00:45:41;;;;;;;13.43;12.53;;;6.20;99.90;;;;;;5010967;28;20258;-75
2021/12/13 00:48:09;;;;;;;14.03;13.00;;;6.20;99.90;;;;;;5014617;28;20210;-75
2021/12/13 00:50:43;;;;;;;14.07;13.07;;;6.20;99.90;;;;;;5007792;28;20660;-75
2021/12/13 00:53:16;;;;;;;13.90;13.00;;;6.20;99.90;;;;;;5015459;28;20237;-74
2021/12/13 00:55:44;;;;;;;14.40;13.30;;;6.20;99.90;;;;;;5011251;28;20263;-75
2021/12/13 00:58:14;;;;;;;14.43;13.43;;;6.20;99.90;;;;;;5013903;28;20207;-75
2021/12/13 01:00:46;;;;;;;13.73;12.73;;;6.20;99.90;;;;;;5010521;28;20278;-75
2021/12/13 01:03:18;;;;;;;13.30;12.30;;;6.30;99.90;;;;;;5012826;28;20218;-75
2021/12/13 01:06:12;;;;;;;13.93;12.97;;;6.30;99.90;;;;;;5015291;28;20667;-75
2021/12/13 01:09:20;;;;;;;14.40;13.23;;;6.20;99.90;;;;;;5013735;28;20257;-75
2021/12/13 01:11:55;;;;;;;13.70;12.80;;;6.20;99.90;;;;;;5015079;28;20248;-75
2021/12/13 01:14:56;;;;;;;13.83;12.93;;;6.20;99.90;;;;;;5011672;28;20299;-75
2021/12/13 01:17:38;;;;;;;13.53;12.63;;;6.30;99.90;;;;;;5012124;28;20211;-75
2021/12/13 01:20:16;;;;;;;13.47;12.57;;;6.30;99.90;;;;;;5013780;28;20219;-75
2021/12/13 01:22:51;;;;;;;13.70;12.80;;;6.30;99.90;;;;;;5015279;28;20203;-75
2021/12/13 01:25:40;;;;;;;13.50;12.60;;;6.30;99.90;;;;;;5005489;28;20686;-75
2021/12/13 01:28:21;;;;;;;13.60;12.70;;;6.20;99.90;;;;;;5013838;28;20249;-75
2021/12/13 01:30:51;;;;;;;13.33;12.43;;;6.20;99.90;;;;;;5014823;28;20196;-75
2021/12/13 01:33:19;;;;;;;13.47;12.63;;;6.30;99.90;;;;;;5012890;28;20230;-75
2021/12/13 01:35:50;;;;;;;13.30;12.40;;;6.30;99.90;;;;;;5002784;28;20250;-74
2021/12/13 01:38:20;;;;;;;14.07;13.07;;;6.20;99.90;;;;;;5012674;28;20263;-76
2021/12/13 01:40:50;;;;;;;13.60;12.70;;;6.20;99.90;;;;;;5004976;28;20301;-74
2021/12/13 01:43:23;;;;;;;14.50;13.50;;;6.20;99.90;;;;;;5005562;28;20266;-75
2021/12/13 01:45:52;;;;;;;14.33;13.20;;;6.20;99.90;;;;;;5014486;28;20663;-75
2021/12/13 01:48:22;;;;;;;14.67;13.67;;;6.20;99.90;;;;;;5014577;28;20623;-75
2021/12/13 01:50:53;;;;;;;14.10;13.10;;;6.20;99.90;;;;;;5014453;28;20730;-75
2021/12/13 01:53:32;;;;;;;14.27;13.27;;;6.20;99.90;;;;;;5013682;28;20218;-75
2021/12/13 01:56:09;;;;;;;14.80;13.80;;;6.10;99.90;;;;;;5010155;28;20204;-75
2021/12/13 01:58:42;;;;;;;14.53;13.43;;;6.10;99.90;;;;;;5012987;28;20193;-74
2021/12/13 02:01:14;;;;;;;14.33;13.33;;;6.10;99.90;;;;;;5010680;28;20232;-75
2021/12/13 02:03:55;;;;;;;14.23;13.23;;;6.00;99.90;;;;;;5011430;28;20299;-75
2021/12/13 02:06:26;;;;;;;14.50;13.50;;;6.00;99.90;;;;;;5013889;28;20745;-75
2021/12/13 02:08:57;;;;;;;14.70;13.60;;;6.00;99.90;;;;;;5012671;28;20690;-75
2021/12/13 02:11:25;;;;;;;15.07;13.97;;;6.00;99.90;;;;;;5011525;28;20217;-75
2021/12/13 02:14:07;;;;;;;15.40;14.20;;;5.90;99.90;;;;;;5004426;28;20233;-75
2021/12/13 02:19:31;;;;;;;8.40;6.53;;;5.80;99.90;;;;;;5005623;28;20210;-75
2021/12/13 02:22:29;;;;;;;13.30;11.93;;;5.80;99.90;;;;;;5009888;28;20209;-75
2021/12/13 02:25:00;;;;;;;8.60;7.70;;;5.80;99.90;;;;;;5005759;28;20221;-75
2021/12/13 02:27:30;;;;;;;9.50;8.60;;;5.80;99.90;;;;;;5005758;28;20191;-75
2021/12/13 02:29:59;;;;;;;13.07;11.87;;;5.70;99.90;;;;;;5002272;28;20262;-75
2021/12/13 02:32:28;;;;;;;9.57;8.00;;;5.70;99.90;;;;;;5013409;28;20205;-75
2021/12/13 02:34:58;;;;;;;9.83;8.83;;;5.60;99.90;;;;;;5012515;28;20221;-75
2021/12/13 02:37:26;;;;;;;9.70;8.53;;;5.60;99.90;;;;;;5011208;28;20211;-75
2021/12/13 02:39:59;;;;;;;8.03;7.23;;;5.60;99.90;;;;;;5012125;28;20628;-75
2021/12/13 02:42:30;;;;;;;11.03;9.40;;;5.70;99.90;;;;;;5013563;28;20197;-75
2021/12/13 02:45:01;;;;;;;13.67;12.53;;;5.70;99.90;;;;;;5013582;28;20213;-75
2021/12/13 02:47:31;;;;;;;9.73;8.67;;;5.70;99.90;;;;;;4997010;28;20274;-75
2021/12/13 02:49:59;;;;;;;11.73;10.80;;;5.70;99.90;;;;;;5005670;28;20206;-75
2021/12/13 02:52:28;;;;;;;8.87;7.50;;;5.80;99.90;;;;;;5009932;28;20206;-75
2021/12/13 02:54:58;;;;;;;10.20;9.13;;;5.80;99.90;;;;;;5002586;28;20647;-75
2021/12/13 02:57:29;;;;;;;15.77;14.57;;;5.80;99.90;;;;;;5009937;28;20196;-75
2021/12/13 02:59:59;;;;;;;7.83;6.63;;;5.80;99.90;;;;;;5006078;28;20229;-75
2021/12/13 03:02:32;;;;;;;9.73;7.40;;;5.80;99.90;;;;;;5004912;28;20611;-74
2021/12/13 03:05:01;;;;;;;9.93;7.30;;;5.80;99.90;;;;;;5005463;28;20737;-75
2021/12/13 03:07:35;;;;;;;9.80;8.17;;;5.80;99.90;;;;;;5006807;28;20207;-75
2021/12/13 03:10:08;;;;;;;9.40;7.50;;;5.70;99.90;;;;;;5001501;28;20704;-75
2021/12/13 03:12:36;;;;;;;9.37;8.00;;;5.70;99.90;;;;;;5009658;28;20228;-75
2021/12/13 03:15:11;;;;;;;9.83;8.27;;;5.70;99.90;;;;;;5031678;22;20233;-79
2021/12/13 03:17:43;;;;;;;8.87;8.00;;;5.70;99.90;;;;;;5013615;28;20199;-80
2021/12/13 03:20:31;;;;;;;9.90;7.50;;;5.80;99.90;;;;;;5013824;28;20206;-80
2021/12/13 03:23:27;;;;;;;10.93;8.47;;;5.80;99.90;;;;;;5014079;28;20205;-81
2021/12/13 03:26:19;;;;;;;10.30;8.47;;;5.80;99.90;;;;;;5003156;28;20228;-80
2021/12/13 03:29:02;;;;;;;13.60;9.47;;;5.80;99.90;;;;;;5000449;28;20663;-80
2021/12/13 03:31:36;;;;;;;16.20;14.70;;;5.70;99.90;;;;;;4988355;28;20251;-80
2021/12/13 03:34:08;;;;;;;14.40;13.20;;;5.70;99.90;;;;;;4995103;28;20648;-79
2021/12/13 03:36:47;;;;;;;14.83;13.43;;;5.70;99.90;;;;;;5003872;28;20205;-78
2021/12/13 03:39:17;;;;;;;14.77;13.37;;;5.70;99.90;;;;;;5006870;28;20201;-78
2021/12/13 03:41:47;;;;;;;15.77;13.80;;;5.70;99.90;;;;;;5013030;28;20225;-77
2021/12/13 03:44:19;;;;;;;15.20;13.80;;;5.70;99.90;;;;;;5012786;28;20275;-77
2021/12/13 03:46:49;;;;;;;16.03;14.50;;;5.70;99.90;;;;;;4998322;28;20206;-78
2021/12/13 03:49:18;;;;;;;14.73;11.87;;;5.70;99.90;;;;;;4983137;28;20194;-77
2021/12/13 03:51:45;;;;;;;13.03;9.03;;;5.70;99.90;;;;;;4990288;28;20588;-78
2021/12/13 03:54:16;;;;;;;11.13;9.30;;;5.80;99.90;;;;;;4995859;28;20230;-77
2021/12/13 03:56:46;;;;;;;13.33;11.37;;;5.80;99.90;;;;;;4994051;28;20190;-78
2021/12/13 03:59:20;;;;;;;10.40;8.93;;;5.80;99.90;;;;;;4998490;28;20251;-77
2021/12/13 04:01:53;;;;;;;12.47;10.13;;;5.80;99.90;;;;;;4995396;28;20209;-78
2021/12/13 04:04:23;;;;;;;11.13;8.57;;;5.80;99.90;;;;;;5004799;28;20228;-77
2021/12/13 04:06:54;;;;;;;17.57;16.10;;;5.80;99.90;;;;;;5008966;28;20201;-77
2021/12/13 04:09:23;;;;;;;15.93;14.43;;;5.80;99.90;;;;;;4996782;28;20280;-79
2021/12/13 04:11:54;;;;;;;14.60;11.37;;;5.80;99.90;;;;;;4988120;28;20193;-79
2021/12/13 04:14:29;;;;;;;16.20;13.47;;;5.70;99.90;;;;;;4986605;28;20292;-79
2021/12/13 04:17:07;;;;;;;14.33;10.33;;;5.70;99.90;;;;;;4993043;28;20409;-79
2021/12/13 04:19:46;;;;;;;18.53;16.93;;;5.70;99.90;;;;;;4991535;28;20202;-77
2021/12/13 04:22:16;;;;;;;19.87;18.13;;;5.70;99.90;;;;;;4991514;28;20294;-79
2021/12/13 04:24:46;;;;;;;20.20;18.30;;;5.80;99.90;;;;;;5000446;28;20213;-81
2021/12/13 04:27:20;;;;;;;20.53;18.83;;;5.80;99.90;;;;;;5007134;28;20194;-79
2021/12/13 04:29:50;;;;;;;20.73;18.90;;;5.80;99.90;;;;;;4995863;28;20260;-79
2021/12/13 04:32:20;;;;;;;21.63;19.80;;;5.80;99.90;;;;;;4995088;28;20621;-79
2021/12/13 04:34:51;;;;;;;22.03;20.13;;;5.80;99.90;;;;;;4997938;28;20221;-79
2021/12/13 04:37:20;;;;;;;20.50;18.70;;;5.80;99.90;;;;;;4998831;28;20629;-79
2021/12/13 04:39:52;;;;;;;22.27;20.13;;;5.80;99.90;;;;;;4996360;28;20201;-81
2021/12/13 04:42:21;;;;;;;20.03;18.33;;;5.80;99.90;;;;;;4993460;28;20231;-80
2021/12/13 04:44:54;;;;;;;20.67;18.73;;;5.80;99.90;;;;;;4997921;28;20288;-81
2021/12/13 04:47:24;;;;;;;21.57;19.57;;;5.80;99.90;;;;;;5001531;28;20594;-80
2021/12/13 04:50:00;;;;;;;20.77;18.97;;;5.80;99.90;;;;;;4997090;28;20216;-79
2021/12/13 04:52:28;;;;;;;20.00;18.20;;;5.80;99.90;;;;;;5002214;28;20200;-81
2021/12/13 04:54:56;;;;;;;15.63;14.03;;;5.70;99.90;;;;;;5001417;28;20225;-80
2021/12/13 04:57:25;;;;;;;20.87;18.93;;;5.70;99.90;;;;;;4998363;28;20236;-81
2021/12/13 04:59:56;;;;;;;21.67;19.60;;;5.80;99.90;;;;;;5000076;28;20199;-80
2021/12/13 05:02:25;;;;;;;12.90;11.43;;;5.80;99.90;;;;;;5001581;28;20224;-80
2021/12/13 05:04:55;;;;;;;13.37;10.70;;;5.80;99.90;;;;;;4999093;28;20761;-79
2021/12/13 05:07:23;;;;;;;16.03;14.53;;;5.80;99.90;;;;;;4994153;28;20239;-79
2021/12/13 05:09:52;;;;;;;13.20;11.77;;;5.70;99.90;;;;;;4995699;28;20197;-80
2021/12/13 05:12:25;;;;;;;14.67;12.73;;;5.80;99.90;;;;;;5001811;28;20208;-80
2021/12/13 05:14:59;;;;;;;17.87;16.17;;;5.80;99.90;;;;;;5003382;28;20225;-80
2021/12/13 05:17:31;;;;;;;15.53;14.17;;;5.80;99.90;;;;;;4996017;28;20247;-80
2021/12/13 05:20:07;;;;;;;15.47;13.87;;;5.70;99.90;;;;;;4997946;28;20726;-80
2021/12/13 05:22:43;;;;;;;14.43;10.57;;;5.70;99.90;;;;;;4997982;28;20275;-81
2021/12/13 05:25:11;;;;;;;13.77;8.93;;;5.70;99.90;;;;;;5002663;28;20213;-80
2021/12/13 05:27:41;;;;;;;12.93;10.83;;;5.70;99.90;;;;;;5002424;28;20209;-80
2021/12/13 05:30:13;;;;;;;14.70;13.13;;;5.70;99.90;;;;;;5003925;28;20683;-81
2021/12/13 05:32:46;;;;;;;16.13;14.53;;;5.70;99.90;;;;;;5002621;28;20201;-80
2021/12/13 05:35:21;;;;;;;19.63;18.03;;;5.60;99.90;;;;;;5001424;28;20225;-80
2021/12/13 05:37:51;;;;;;;19.83;18.23;;;5.70;99.90;;;;;;4998309;28;20204;-81
2021/12/13 05:40:22;;;;;;;16.83;13.57;;;5.70;99.90;;;;;;4993228;28;20210;-80
2021/12/13 05:42:52;;;;;;;17.10;15.50;;;5.70;99.90;;;;;;5007544;28;20212;-81
2021/12/13 05:45:34;;;;;;;12.83;9.90;;;5.60;99.90;;;;;;5003208;28;20229;-81
2021/12/13 05:48:06;;;;;;;20.53;18.67;;;5.60;99.90;;;;;;4995123;28;20203;-81
2021/12/13 05:50:36;;;;;;;24.73;22.43;;;5.60;99.90;;;;;;4997518;28;20206;-79
2021/12/13 05:53:09;;;;;;;25.23;22.67;;;5.60;99.90;;;;;;5001385;28;20663;-78
2021/12/13 05:55:48;;;;;;;22.43;20.27;;;5.60;99.90;;;;;;4997746;28;20615;-79
2021/12/13 05:58:29;;;;;;;23.53;21.43;;;5.60;99.90;;;;;;4998749;28;20209;-79
2021/12/13 06:00:59;;;;;;;15.47;13.87;;;5.60;99.90;;;;;;4996964;28;20274;-79
2021/12/13 06:03:33;;;;;;;18.53;16.80;;;5.70;99.90;;;;;;5001342;28;20645;-80
2021/12/13 06:06:07;;;;;;;19.37;17.87;;;5.70;99.90;;;;;;4998743;28;20206;-79
2021/12/13 06:08:41;;;;;;;13.87;12.43;;;5.70;99.90;;;;;;4999888;28;20222;-80
2021/12/13 06:11:11;;;;;;;17.63;16.03;;;5.70;99.90;;;;;;4998331;28;20206;-80
2021/12/13 06:14:05;;;;;;;19.53;18.03;;;5.80;99.90;;;;;;5004535;28;20218;-79
2021/12/13 06:16:49;;;;;;;14.87;12.17;;;5.70;99.90;;;;;;4998237;28;20209;-80
2021/12/13 06:19:23;;;;;;;18.63;17.03;;;5.70;99.90;;;;;;5003881;28;20198;-80
2021/12/13 06:22:00;;;;;;;11.77;9.50;;;5.70;99.90;;;;;;5008207;28;20284;-79
2021/12/13 06:24:29;;;;;;;14.50;10.27;;;5.70;99.90;;;;;;5013267;28;20832;-78
2021/12/13 06:27:07;;;;;;;18.63;16.67;;;5.70;99.90;;;;;;5022886;28;20201;-78
2021/12/13 06:29:56;;;;;;;15.70;14.27;;;5.70;99.90;;;;;;5008570;28;20277;-79
2021/12/13 06:32:28;;;;;;;12.87;9.37;;;5.70;99.90;;;;;;5000182;28;20828;-79
2021/12/13 06:34:55;;;;;;;12.17;10.33;;;5.70;99.90;;;;;;4996579;28;20269;-82
2021/12/13 06:37:30;;;;;;;13.33;10.90;;;5.70;99.90;;;;;;5002129;28;20212;-81
2021/12/13 06:40:18;;;;;;;12.87;11.27;;;5.70;99.90;;;;;;4999937;28;20637;-81
2021/12/13 06:42:46;;;;;;;17.50;15.77;;;5.70;99.90;;;;;;4999697;28;20216;-80
2021/12/13 06:45:26;;;;;;;16.83;15.23;;;5.70;99.90;;;;;;4992736;28;20252;-80
2021/12/13 06:47:56;;;;;;;13.10;10.40;;;5.70;99.90;;;;;;4999612;28;20682;-80
2021/12/13 06:50:27;;;;;;;15.97;11.87;;;5.70;99.90;;;;;;5000949;28;20249;-80
2021/12/13 06:53:10;;;;;;;16.03;14.33;;;5.70;99.90;;;;;;4998807;28;20841;-81
2021/12/13 06:55:38;;;;;;;16.00;11.60;;;5.70;99.90;;;;;;4986583;28;20205;-80
2021/12/13 06:58:14;;;;;;;15.07;12.90;;;5.70;99.90;;;;;;4992102;28;20205;-80
2021/12/13 07:00:41;;;;;;;18.03;15.93;;;5.70;99.90;;;;;;4997215;28;20206;-79
2021/12/13 07:03:12;;;;;;;15.17;10.97;;;5.60;99.90;;;;;;4997024;28;20277;-80
2021/12/13 07:05:45;;;;;;;14.37;11.53;;;5.70;99.90;;;;;;5003626;28;20201;-79
2021/12/13 07:08:19;;;;;;;16.63;15.03;;;5.60;99.90;;;;;;5003527;28;20260;-79
2021/12/13 07:10:59;;;;;;;16.97;15.47;;;5.70;99.90;;;;;;4998346;28;20193;-80
2021/12/13 07:13:31;;;;;;;13.83;11.77;;;5.80;99.90;;;;;;4997191;28;20312;-80
2021/12/13 07:16:03;;;;;;;21.43;14.90;;;5.80;99.90;;;;;;4997595;28;20201;-80
2021/12/13 07:18:44;;;;;;;15.63;11.20;;;5.80;99.90;;;;;;4997668;28;20292;-80
2021/12/13 07:21:14;;;;;;;13.63;11.90;;;5.80;99.90;;;;;;4999820;28;20213;-80
2021/12/13 07:24:02;;;;;;;13.23;10.37;;;5.80;99.90;;;;;;4996699;28;20464;-80
2021/12/13 07:26:39;;;;;;;15.47;11.20;;;5.80;99.90;;;;;;4985090;28;20201;-81
2021/12/13 07:29:10;;;;;;;16.07;11.60;;;5.80;99.90;;;;;;4991485;28;20257;-80
2021/12/13 07:31:40;;;;;;;20.07;12.10;;;5.80;99.90;;;;;;5002725;28;20196;-82
2021/12/13 07:34:13;;;;;;;17.40;12.90;;;5.80;99.90;;;;;;4996284;28;20735;-82
2021/12/13 07:36:40;;;;;;;23.43;21.47;;;5.80;99.90;;;;;;5005151;28;20552;-81
2021/12/13 07:39:15;;;;;;;15.17;10.73;;;5.80;99.90;;;;;;5001048;28;20737;-81
2021/12/13 07:41:47;;;;;;;20.60;18.70;;;5.80;99.90;;;;;;4999727;28;20237;-80
2021/12/13 07:44:26;;;;;;;15.43;13.83;;;5.80;99.90;;;;;;4998521;28;20271;-81
2021/12/13 07:47:00;;;;;;;15.23;11.93;;;5.80;99.90;;;;;;4995512;28;20205;-81
2021/12/13 07:49:33;;;;;;;16.60;14.53;;;5.90;99.90;;;;;;4999463;28;20205;-80
2021/12/13 07:52:02;;;;;;;11.90;9.93;;;5.90;99.90;;;;;;5002518;28;20194;-80
2021/12/13 07:54:38;;;;;;;12.57;11.07;;;5.90;99.90;;;;;;4989229;28;20312;-80
2021/12/13 07:57:14;;;;;;;17.13;15.33;;;5.90;99.90;;;;;;4993651;28;20207;-79
2021/12/13 07:59:41;;;;;;;21.63;19.67;;;5.90;99.90;;;;;;4999824;28;20262;-81
2021/12/13 08:02:11;;;;;;;16.23;14.63;;;5.90;99.90;;;;;;5000489;28;20242;-80
2021/12/13 08:04:48;;;;;;;12.73;10.97;;;6.00;99.90;;;;;;4998365;28;20276;-81
2021/12/13 08:07:18;;;;;;;22.50;20.70;;;6.00;99.90;;;;;;5001207;28;20761;-79
2021/12/13 08:09:48;;;;;;;16.07;13.40;;;6.10;99.90;;;;;;4998138;28;20201;-80
2021/12/13 08:12:18;;;;;;;17.77;16.07;;;6.10;99.90;;;;;;4994215;28;20709;-81
2021/12/13 08:14:52;;;;;;;16.13;11.20;;;6.10;99.90;;;;;;4998441;28;20230;-80
2021/12/13 08:17:21;;;;;;;15.73;13.30;;;6.20;99.90;;;;;;4999786;28;20198;-81
2021/12/13 08:19:55;;;;;;;14.50;11.93;;;6.30;99.90;;;;;;4995884;28;20251;-80
2021/12/13 08:22:28;;;;;;;15.77;11.33;;;6.30;99.90;;;;;;4993295;28;20316;-80
2021/12/13 08:24:58;;;;;;;17.70;15.83;;;6.40;99.90;;;;;;4992748;28;20218;-81
2021/12/13 08:27:29;;;;;;;22.87;20.97;;;6.40;99.90;;;;;;4996794;28;20205;-80
2021/12/13 08:30:16;;;;;;;22.90;20.73;;;6.50;99.90;;;;;;4998472;28;20214;-80
2021/12/13 08:32:56;;;;;;;23.00;21.03;;;6.50;99.90;;;;;;4993701;28;20206;-79
2021/12/13 08:35:24;;;;;;;22.30;20.30;;;6.50;99.90;;;;;;4989836;28;20283;-81
2021/12/13 08:37:55;;;;;;;23.93;21.60;;;6.50;99.90;;;;;;4992544;28;20189;-80
2021/12/13 08:40:25;;;;;;;23.67;21.43;;;6.50;99.90;;;;;;4997031;28;20249;-81
2021/12/13 08:42:54;;;;;;;22.90;20.90;;;6.50;99.90;;;;;;4994835;28;20277;-79
2021/12/13 08:45:28;;;;;;;24.07;21.87;;;6.50;99.90;;;;;;5003579;28;20276;-79
2021/12/13 08:47:59;;;;;;;24.10;22.20;;;6.60;99.90;;;;;;5000922;28;20264;-80
2021/12/13 08:50:32;;;;;;;23.97;21.97;;;6.50;99.90;;;;;;5001959;28;20197;-80
2021/12/13 08:53:04;;;;;;;22.80;20.77;;;6.50;99.90;;;;;;5001433;28;20713;-81
2021/12/13 08:55:34;;;;;;;23.20;20.97;;;6.60;99.90;;;;;;4988108;28;20263;-81
2021/12/13 08:58:14;;;;;;;22.77;20.67;;;6.60;99.90;;;;;;4994936;28;20230;-81
2021/12/13 09:00:51;;;;;;;24.40;22.07;;;6.70;99.90;;;;;;4997826;28;20222;-82
2021/12/13 09:03:24;;;;;;;23.13;21.03;;;6.70;99.90;;;;;;4999040;28;20217;-81
2021/12/13 09:06:07;;;;;;;23.93;21.53;;;6.70;99.90;;;;;;4999770;28;20219;-81
2021/12/13 09:08:38;;;;;;;23.67;21.47;;;6.70;99.90;;;;;;4994602;28;20589;-81
2021/12/13 09:11:20;;;;;;;22.70;20.80;;;6.80;99.90;;;;;;5000054;28;20199;-81
2021/12/13 09:13:51;;;;;;;23.07;20.97;;;6.90;99.90;;;;;;5009907;28;20222;-81
2021/12/13 09:16:21;;;;;;;22.57;20.67;;;6.90;99.90;;;;;;5016405;28;20221;-80
2021/12/13 09:18:47;;;;;;;22.07;20.17;;;7.00;99.90;;;;;;5018040;28;20215;-79
2021/12/13 09:21:20;;;;;;;20.93;19.10;;;7.10;99.90;;;;;;5018670;28;20617;-80
2021/12/13 09:23:51;;;;;;;22.00;20.20;;;7.10;99.90;;;;;;5018477;28;20618;-81
2021/12/13 09:26:24;;;;;;;22.30;20.30;;;7.20;99.90;;;;;;5006426;28;20208;-80
2021/12/13 09:28:57;;;;;;;21.57;19.77;;;7.20;99.90;;;;;;5015541;28;20202;-80
2021/12/13 09:31:28;;;;;;;21.60;19.90;;;7.30;99.90;;;;;;5015451;28;20262;-81
2021/12/13 09:33:57;;;;;;;21.97;20.07;;;7.40;99.90;;;;;;5016477;28;20218;-80
2021/12/13 09:36:28;;;;;;;22.23;20.43;;;7.40;99.90;;;;;;5002118;28;20207;-79
2021/12/13 09:38:58;;;;;;;18.37;16.57;;;7.40;99.90;;;;;;5003142;28;20200;-79
2021/12/13 09:41:35;;;;;;;17.30;15.77;;;7.40;99.90;;;;;;4998122;28;20756;-80
2021/12/13 09:44:17;;;;;;;15.93;14.30;;;7.50;99.90;;;;;;4995249;28;20357;-80
2021/12/13 09:46:46;;;;;;;22.27;20.37;;;7.50;99.90;;;;;;4994021;28;20198;-80
2021/12/13 09:49:20;;;;;;;15.77;14.13;;;7.60;99.90;;;;;;5002527;28;20200;-81
2021/12/13 09:51:55;;;;;;;23.00;21.10;;;7.60;99.90;;;;;;4996118;28;20193;-80
2021/12/13 09:54:27;;;;;;;18.17;16.40;;;7.70;99.90;;;;;;5004994;28;20314;-79
2021/12/13 09:56:55;;;;;;;19.00;17.20;;;7.60;99.90;;;;;;4998681;28;20728;-80
2021/12/13 09:59:27;;;;;;;20.43;18.53;;;7.60;99.90;;;;;;5001255;28;20267;-80
2021/12/13 10:01:56;;;;;;;19.50;17.80;;;7.50;99.90;;;;;;5004035;28;20691;-79
2021/12/13 10:04:29;;;;;;;18.43;16.63;;;7.40;99.90;;;;;;4998991;28;20287;-80
2021/12/13 10:07:02;;;;;;;20.43;18.63;;;7.40;99.90;;;;;;5004671;28;20369;-79
2021/12/13 10:09:34;;;;;;;19.80;18.23;;;7.40;99.90;;;;;;4993734;28;20204;-80
2021/12/13 10:12:06;;;;;;;21.93;20.13;;;7.40;99.90;;;;;;4999669;28;20307;-80
2021/12/13 10:14:35;;;;;;;17.00;15.37;;;7.40;99.90;;;;;;4990349;28;20672;-80
2021/12/13 10:17:05;;;;;;;16.27;14.73;;;7.50;99.90;;;;;;4993498;28;20673;-80
2021/12/13 10:19:35;;;;;;;17.67;16.20;;;7.50;99.90;;;;;;4993445;28;20201;-80
2021/12/13 10:22:04;;;;;;;14.43;13.17;;;7.60;99.90;;;;;;4998286;28;20204;-79
2021/12/13 10:24:35;;;;;;;20.93;19.13;;;7.80;99.90;;;;;;4995302;28;20268;-80
2021/12/13 10:27:06;;;;;;;14.37;12.87;;;7.80;99.90;;;;;;4995260;28;20206;-79
2021/12/13 10:29:34;;;;;;;16.17;14.70;;;7.90;99.90;;;;;;4996022;28;20604;-80
2021/12/13 10:32:04;;;;;;;16.43;14.93;;;7.90;99.90;;;;;;5001724;28;20207;-80
2021/12/13 10:34:36;;;;;;;17.10;15.53;;;7.90;99.90;;;;;;4986576;28;20215;-80
2021/12/13 10:37:11;;;;;;;14.77;13.43;;;8.00;99.90;;;;;;4992324;28;20693;-80
2021/12/13 10:39:42;;;;;;;16.60;15.07;;;8.00;99.90;;;;;;4998866;28;20205;-79
2021/12/13 10:42:11;;;;;;;16.07;14.60;;;8.00;99.90;;;;;;5000960;28;20258;-79
2021/12/13 10:44:44;;;;;;;17.43;15.83;;;8.00;99.90;;;;;;4996011;28;20205;-80
2021/12/13 10:47:15;;;;;;;22.73;20.73;;;8.10;99.90;;;;;;5000043;28;20212;-79
2021/12/13 10:49:47;;;;;;;21.00;19.43;;;8.10;99.90;;;;;;5001026;28;20251;-81
2021/12/13 10:52:18;;;;;;;22.37;20.27;;;8.20;99.90;;;;;;5000906;28;20216;-80
2021/12/13 10:54:55;;;;;;;21.63;19.83;;;8.20;99.90;;;;;;4999130;28;20267;-80
2021/12/13 10:57:27;;;;;;;22.20;20.40;;;8.30;99.90;;;;;;4994376;28;20202;-80
2021/12/13 10:59:57;;;;;;;24.67;22.70;;;8.40;99.90;;;;;;4994006;28;20559;-79
2021/12/13 11:02:29;;;;;;;28.57;26.47;;;8.50;99.90;;;;;;4998194;28;20207;-80
2021/12/13 11:04:59;;;;;;;17.00;15.40;;;8.70;99.90;;;;;;4993550;28;20781;-80
2021/12/13 11:07:29;;;;;;;19.43;17.77;;;8.80;99.90;;;;;;5009236;28;20194;-79
2021/12/13 11:09:58;;;;;;;15.23;13.93;;;9.00;99.90;;;;;;4998018;28;20279;-80
2021/12/13 11:12:27;;;;;;;15.13;13.73;;;9.10;99.90;;;;;;4998507;28;20205;-80
2021/12/13 11:14:57;;;;;;;14.77;13.30;;;9.10;99.90;;;;;;4996847;28;20279;-79
2021/12/13 11:17:27;;;;;;;14.97;13.67;;;9.10;99.90;;;;;;4992414;28;20200;-80
2021/12/13 11:19:56;;;;;;;14.63;13.17;;;9.00;99.90;;;;;;4991017;28;20225;-80
2021/12/13 11:22:29;;;;;;;14.20;13.00;;;9.00;99.90;;;;;;4998445;28;20223;-80
2021/12/13 11:25:02;;;;;;;14.70;13.40;;;8.90;99.90;;;;;;4997224;28;20217;-80
2021/12/13 11:27:32;;;;;;;17.90;16.37;;;8.90;99.90;;;;;;4992217;28;20328;-79
2021/12/13 11:30:01;;;;;;;14.33;12.93;;;8.90;99.90;;;;;;4993131;28;20205;-81
2021/12/13 11:33:02;;;;;;;18.97;17.47;;;8.80;99.90;;;;;;4988675;28;20202;-79
2021/12/13 11:36:17;;;;;;;17.67;16.07;;;8.80;99.90;;;;;;4992133;28;20200;-79
2021/12/13 11:39:16;;;;;;;16.23;14.90;;;8.70;99.90;;;;;;4988200;28;20260;-81
2021/12/13 11:42:07;;;;;;;18.60;17.10;;;8.70;99.90;;;;;;4991361;28;20661;-79
2021/12/13 11:44:44;;;;;;;14.07;12.80;;;8.70;99.90;;;;;;4989185;28;20227;-79
2021/12/13 11:47:38;;;;;;;19.40;17.90;;;8.60;99.90;;;;;;4992162;28;20670;-79
2021/12/13 11:50:42;;;;;;;19.00;17.60;;;8.60;99.90;;;;;;4991602;28;20206;-79
2021/12/13 11:53:42;;;;;;;17.70;16.43;;;8.60;99.90;;;;;;4991726;28;20204;-81
2021/12/13 11:56:37;;;;;;;17.57;16.27;;;8.70;99.90;;;;;;4991652;28;20234;-80
2021/12/13 11:59:30;;;;;;;17.47;16.27;;;8.80;99.90;;;;;;4989973;28;20198;-81
2021/12/13 12:02:04;;;;;;;17.40;16.10;;;8.80;99.90;;;;;;5003108;28;20254;-80
2021/12/13 12:05:19;;;;;;;16.70;15.60;;;8.90;99.90;;;;;;4987445;28;20224;-81
2021/12/13 12:08:19;;;;;;;16.30;15.20;;;9.00;99.90;;;;;;4994866;28;20665;-81
2021/12/13 12:11:28;;;;;;;16.57;15.37;;;9.10;99.90;;;;;;4993839;28;20307;-80
2021/12/13 12:14:04;;;;;;;16.83;15.53;;;9.10;99.90;;;;;;4990163;28;20279;-80
2021/12/13 12:16:35;;;;;;;14.30;13.20;;;9.20;99.90;;;;;;4994619;28;20201;-80
2021/12/13 12:19:03;;;;;;;10.30;9.33;;;9.20;99.90;;;;;;5005229;28;20256;-81
2021/12/13 12:21:53;;;;;;;7.27;6.50;;;9.20;99.90;;;;;;4997371;28;20203;-80
2021/12/13 12:24:23;;;;;;;8.07;7.00;;;9.30;99.90;;;;;;5005047;28;20221;-80
2021/12/13 12:26:54;;;;;;;7.33;6.60;;;9.30;99.90;;;;;;5000907;28;20205;-80
2021/12/13 12:29:27;;;;;;;7.43;6.63;;;9.40;99.90;;;;;;5004281;28;20200;-80
2021/12/13 12:32:02;;;;;;;7.07;6.07;;;9.40;99.90;;;;;;5000963;28;20256;-80
2021/12/13 12:34:30;;;;;;;6.33;5.67;;;9.40;99.90;;;;;;4977998;28;20213;-80
2021/12/13 12:37:54;;;;;;;6.97;6.23;;;9.40;99.90;;;;;;4992119;28;20242;-80
2021/12/13 12:40:29;;;;;;;6.90;5.40;;;9.30;99.90;;;;;;5010098;28;20202;-80
2021/12/13 12:42:58;;;;;;;5.37;4.87;;;9.20;99.90;;;;;;5005297;28;20259;-80
2021/12/13 12:45:30;;;;;;;5.00;4.60;;;9.20;99.90;;;;;;5016316;28;20816;-80
2021/12/13 12:48:24;;;;;;;6.43;4.70;;;9.20;99.90;;;;;;5017896;28;20728;-80
2021/12/13 12:51:01;;;;;;;10.57;9.77;;;9.10;99.90;;;;;;4996078;28;20198;-80
2021/12/13 12:53:43;;;;;;;15.43;14.33;;;9.00;99.90;;;;;;4994225;28;20216;-80
2021/12/13 12:56:15;;;;;;;12.80;11.87;;;9.00;99.90;;;;;;5003558;28;20193;-80
2021/12/13 12:58:50;;;;;;;6.17;5.57;;;9.00;99.90;;;;;;4995513;28;20197;-80
2021/12/13 13:01:23;;;;;;;7.73;7.13;;;9.00;99.90;;;;;;5004769;28;20238;-79
2021/12/13 13:03:51;;;;;;;9.60;8.70;;;9.00;99.90;;;;;;4999686;28;20213;-80
2021/12/13 13:06:21;;;;;;;9.47;8.63;;;9.00;99.90;;;;;;4997557;28;20200;-79
2021/12/13 13:08:51;;;;;;;7.53;6.83;;;9.10;99.90;;;;;;5000735;28;20736;-80
2021/12/13 13:11:35;;;;;;;10.20;9.20;;;9.10;99.90;;;;;;5004612;28;20200;-79
2021/12/13 13:14:10;;;;;;;11.57;10.67;;;9.10;99.90;;;;;;5001200;28;20235;-79
2021/12/13 13:16:43;;;;;;;14.33;13.17;;;9.10;99.90;;;;;;4990812;28;20207;-80
2021/12/13 13:19:11;;;;;;;18.03;16.63;;;9.00;99.90;;;;;;4995516;28;20209;-80
2021/12/13 13:21:43;;;;;;;8.37;6.90;;;9.00;99.90;;;;;;5001617;28;20268;-80